Time;durP1;ratioP1;P1;durP2;ratioP2;P2;SDS_P1;SDS_P2;PMS_P1;PMS_P2;Temp;Humidity;BMP_temperature;BMP_pressure;BME280_temperature;BME280_humidity;BME280_pressure;Samples;Min_cycle;Max_cycle;Signal;HPM_P1;HPM_P2
2021/01/10 00:00:12;;;;;;;4.38;2.90;;;;;;;16.21;45.21;102588.59;6212612;23;20020;-76
2021/01/10 00:02:40;;;;;;;4.57;2.78;;;;;;;16.21;45.21;102588.59;6229295;23;20423;-77
2021/01/10 00:05:08;;;;;;;5.05;3.03;;;;;;;16.20;45.30;102589.44;6193661;23;20055;-76
2021/01/10 00:07:34;;;;;;;5.55;3.10;;;;;;;16.20;45.12;102586.84;6218687;23;20000;-76
2021/01/10 00:09:59;;;;;;;4.80;3.38;;;;;;;16.20;45.26;102584.25;6167659;23;20012;-75
2021/01/10 00:12:26;;;;;;;4.45;2.85;;;;;;;16.22;45.08;102592.97;6216680;23;20416;-76
2021/01/10 00:14:52;;;;;;;5.60;2.92;;;;;;;16.23;45.21;102591.25;6217783;23;20011;-76
2021/01/10 00:17:18;;;;;;;4.93;3.03;;;;;;;16.23;45.21;102593.84;6219945;23;20005;-75
2021/01/10 00:19:47;;;;;;;3.88;2.63;;;;;;;16.23;45.25;102586.91;6193617;23;20004;-76
2021/01/10 00:22:14;;;;;;;4.28;2.78;;;;;;;16.25;45.33;102590.44;6223944;23;20057;-79
2021/01/10 00:24:42;;;;;;;4.57;2.80;;;;;;;16.25;45.28;102587.84;6261124;22;20022;-76
2021/01/10 00:27:14;;;;;;;3.92;2.80;;;;;;;16.24;45.33;102585.19;6257679;22;20020;-76
2021/01/10 00:29:42;;;;;;;4.53;2.90;;;;;;;16.24;45.21;102578.28;6288290;22;20004;-78
2021/01/10 00:32:08;;;;;;;3.92;2.63;;;;;;;16.25;44.94;102585.22;6260808;22;20016;-76
2021/01/10 00:34:33;;;;;;;4.28;2.78;;;;;;;16.25;45.05;102584.38;6214052;22;20018;-76
2021/01/10 00:36:59;;;;;;;4.28;2.78;;;;;;;16.26;45.25;102583.50;6207468;22;20012;-76
2021/01/10 00:39:25;;;;;;;3.58;2.60;;;;;;;16.27;45.27;102581.81;6257661;22;20004;-76
2021/01/10 00:41:50;;;;;;;4.97;2.53;;;;;;;16.25;45.44;102579.16;6227386;22;20073;-76
2021/01/10 00:44:16;;;;;;;4.75;2.40;;;;;;;16.26;45.37;102573.13;6202140;22;20008;-76
2021/01/10 00:46:41;;;;;;;3.47;2.45;;;;;;;16.25;45.07;102574.84;6253679;22;20004;-76
2021/01/10 00:49:07;;;;;;;4.30;2.40;;;;;;;16.24;45.24;102567.91;6201901;22;20031;-75
2021/01/10 00:51:32;;;;;;;3.78;2.42;;;;;;;16.26;45.33;102567.91;6202912;22;20019;-77
2021/01/10 00:53:57;;;;;;;3.92;2.47;;;;;;;16.25;45.40;102568.78;6252568;22;20023;-76
2021/01/10 00:56:23;;;;;;;3.85;2.33;;;;;;;16.25;45.23;102574.84;6279619;22;20363;-76
2021/01/10 00:58:48;;;;;;;3.17;2.40;;;;;;;16.26;45.29;102570.50;6252604;22;20011;-76
2021/01/10 01:01:14;;;;;;;3.72;2.40;;;;;;;16.25;44.75;102576.56;6279186;22;20012;-76
2021/01/10 01:03:39;;;;;;;3.17;2.20;;;;;;;16.25;45.13;102573.97;6256616;22;20070;-76
2021/01/10 01:06:12;;;;;;;2.97;2.10;;;;;;;16.25;45.22;102574.84;6282864;22;20038;-76
2021/01/10 01:08:37;;;;;;;3.03;1.98;;;;;;;16.25;45.23;102574.84;6303554;22;20000;-80
2021/01/10 01:11:03;;;;;;;3.80;2.17;;;;;;;16.24;45.32;102575.69;6268956;22;20020;-80
2021/01/10 01:13:28;;;;;;;3.15;2.00;;;;;;;16.27;45.21;102579.22;6251376;23;20023;-76
2021/01/10 01:18:29;;;;;;;2.85;2.10;;;;;;;16.27;45.12;102577.47;6270026;22;20027;-76
2021/01/10 01:20:54;;;;;;;3.13;2.10;;;;;;;16.27;45.06;102581.81;6206493;22;20063;-76
2021/01/10 01:23:19;;;;;;;3.67;2.10;;;;;;;16.27;45.16;102579.22;6205020;22;20087;-77
2021/01/10 01:25:45;;;;;;;3.17;1.92;;;;;;;16.27;45.32;102581.81;6207599;22;20053;-76
2021/01/10 01:30:45;;;;;;;2.33;1.50;;;;;;;16.27;45.39;102577.47;6284823;22;20335;-77
2021/01/10 01:33:11;;;;;;;2.63;1.70;;;;;;;16.27;45.30;102580.09;6246733;22;20008;-79
2021/01/10 01:35:36;;;;;;;3.42;1.95;;;;;;;16.28;45.17;102578.34;6300736;22;20012;-78
2021/01/10 01:38:01;;;;;;;3.47;1.88;;;;;;;16.28;45.27;102587.03;6274401;22;20031;-78
2021/01/10 01:40:27;;;;;;;2.83;1.77;;;;;;;16.28;45.16;102578.34;6249937;22;20270;-76
2021/01/10 01:42:52;;;;;;;3.20;1.80;;;;;;;16.29;45.12;102575.81;6275146;22;20012;-81
2021/01/10 01:45:17;;;;;;;2.60;1.70;;;;;;;16.28;45.15;102579.22;6251555;22;20016;-81
2021/01/10 01:47:43;;;;;;;3.15;1.75;;;;;;;16.29;45.11;102569.72;6251208;22;20012;-81
2021/01/10 01:50:09;;;;;;;2.22;1.60;;;;;;;16.29;45.20;102569.72;6250573;22;20011;-80
2021/01/10 01:55:09;;;;;;;2.67;1.60;;;;;;;16.28;45.27;102566.25;6298728;22;20028;-81
2021/01/10 02:00:06;;;;;;;2.55;1.30;;;;;;;16.30;45.13;102563.69;6270601;23;20016;-80
2021/01/10 02:02:32;;;;;;;2.50;1.50;;;;;;;16.30;45.28;102561.09;6246525;23;20047;-80
2021/01/10 02:05:08;;;;;;;2.70;1.55;;;;;;;16.29;45.27;102556.72;6219828;23;20023;-79
2021/01/10 02:07:52;;;;;;;1.88;1.30;;;;;;;16.29;45.22;102556.72;6242108;23;20010;-77
2021/01/10 02:10:24;;;;;;;2.08;1.33;;;;;;;16.29;45.32;102554.13;6242716;23;20164;-78
2021/01/10 02:12:57;;;;;;;3.53;1.45;;;;;;;16.28;45.10;102555.84;6243164;23;20008;-77
2021/01/10 02:15:25;;;;;;;2.85;1.73;;;;;;;16.29;45.22;102555.03;6269615;23;20004;-82
2021/01/10 02:17:53;;;;;;;1.63;1.25;;;;;;;16.28;45.15;102557.56;6248019;22;20058;-77
2021/01/10 02:20:33;;;;;;;1.75;1.30;;;;;;;16.29;45.07;102551.53;6279032;22;20054;-77
2021/01/10 02:23:14;;;;;;;2.13;1.20;;;;;;;16.30;45.28;102555.91;6303928;22;20003;-80
2021/01/10 02:25:43;;;;;;;2.25;1.40;;;;;;;16.29;45.15;102552.41;6306126;22;20007;-79
2021/01/10 02:28:09;;;;;;;2.08;1.27;;;;;;;16.29;45.21;102552.41;6306396;22;20007;-78
2021/01/10 02:30:38;;;;;;;1.77;1.17;;;;;;;16.29;44.94;102557.63;6305727;22;20025;-78
2021/01/10 02:33:10;;;;;;;1.75;1.10;;;;;;;16.29;45.13;102551.53;6299281;22;20045;-77
2021/01/10 02:35:36;;;;;;;1.80;1.20;;;;;;;16.28;45.16;102552.38;6295162;22;20025;-76
2021/01/10 02:38:37;;;;;;;1.88;1.23;;;;;;;16.28;45.28;102542.84;6276670;22;20038;-76
2021/01/10 02:41:26;;;;;;;2.03;1.02;;;;;;;16.27;45.27;102533.31;6298138;22;20014;-77
2021/01/10 02:44:07;;;;;;;1.63;1.10;;;;;;;16.29;45.11;102543.72;6296201;22;20010;-76
2021/01/10 02:46:35;;;;;;;1.98;1.00;;;;;;;16.28;45.21;102532.47;6297149;22;20007;-78
2021/01/10 02:49:01;;;;;;;1.55;1.10;;;;;;;16.29;45.10;102535.94;6298492;22;20009;-76
2021/01/10 02:51:27;;;;;;;3.63;1.42;;;;;;;16.29;45.14;102534.25;6298661;22;20003;-77
2021/01/10 02:53:52;;;;;;;1.92;1.25;;;;;;;16.29;45.20;102534.25;6325302;22;20015;-77
2021/01/10 02:56:18;;;;;;;1.83;1.10;;;;;;;16.29;45.21;102538.53;6303686;22;20007;-76
2021/01/10 02:58:43;;;;;;;2.17;1.05;;;;;;;16.27;45.09;102530.72;6301752;22;20014;-76
2021/01/10 03:01:11;;;;;;;1.40;0.88;;;;;;;16.27;45.14;102528.13;6272201;22;20011;-78
2021/01/10 03:03:37;;;;;;;1.70;1.08;;;;;;;16.30;45.02;102529.91;6324989;22;20003;-77
2021/01/10 03:06:03;;;;;;;1.67;1.10;;;;;;;16.28;45.06;102527.28;6300968;22;20053;-82
2021/01/10 03:08:29;;;;;;;1.77;0.90;;;;;;;16.29;45.26;102529.03;6272330;22;20018;-77
2021/01/10 03:10:55;;;;;;;1.75;1.00;;;;;;;16.30;45.26;102522.13;6273703;22;20007;-77
2021/01/10 03:13:22;;;;;;;1.50;0.95;;;;;;;16.30;45.02;102522.13;6273474;22;20011;-76
2021/01/10 03:15:47;;;;;;;1.30;0.85;;;;;;;16.30;45.20;102520.38;6300865;22;19996;-76
2021/01/10 03:18:17;;;;;;;1.27;0.80;;;;;;;16.31;45.26;102523.84;6301160;22;20010;-79
2021/01/10 03:20:43;;;;;;;1.90;1.00;;;;;;;16.30;45.19;102520.38;6304565;22;20438;-81
2021/01/10 03:23:08;;;;;;;1.67;1.00;;;;;;;16.30;45.48;102519.53;6280429;22;20011;-81
2021/01/10 03:25:34;;;;;;;1.50;1.08;;;;;;;16.30;45.21;102524.72;6306031;22;20006;-81
2021/01/10 03:27:59;;;;;;;1.40;0.80;;;;;;;16.29;45.06;102521.25;6307524;22;20010;-81
2021/01/10 03:30:24;;;;;;;1.25;1.00;;;;;;;16.31;45.27;102516.06;6278521;22;20008;-79
2021/01/10 03:32:50;;;;;;;1.58;0.93;;;;;;;16.30;44.98;102515.19;6278951;22;20043;-77
2021/01/10 03:35:18;;;;;;;1.05;0.65;;;;;;;16.30;44.97;102510.00;6303734;22;20010;-77
2021/01/10 03:37:44;;;;;;;1.48;0.82;;;;;;;16.31;45.13;102510.88;6301339;22;20008;-78
2021/01/10 03:40:11;;;;;;;1.60;0.90;;;;;;;16.31;45.00;102509.16;6277575;22;20007;-77
2021/01/10 03:42:37;;;;;;;1.38;0.80;;;;;;;16.31;45.06;102508.28;6329978;22;20037;-77
2021/01/10 03:45:07;;;;;;;1.40;0.77;;;;;;;16.33;45.11;102517.88;6275314;22;20023;-80
2021/01/10 03:47:34;;;;;;;1.50;0.73;;;;;;;16.32;45.08;102516.09;6330910;22;20012;-79
2021/01/10 03:49:59;;;;;;;1.30;0.80;;;;;;;16.31;45.11;102510.88;6304450;22;20007;-77
2021/01/10 03:52:25;;;;;;;1.38;0.80;;;;;;;16.31;44.98;102510.88;6253018;22;20003;-79
2021/01/10 03:54:50;;;;;;;1.17;0.80;;;;;;;16.33;45.16;102510.09;6256856;22;20015;-77
2021/01/10 03:57:15;;;;;;;1.30;0.80;;;;;;;16.33;45.13;102511.78;6248989;22;20008;-80
2021/01/10 03:59:41;;;;;;;1.05;0.70;;;;;;;16.32;44.95;102513.50;6274629;22;20011;-79
2021/01/10 04:02:06;;;;;;;1.20;0.77;;;;;;;16.33;45.07;102514.38;6273271;22;20012;-77
2021/01/10 04:04:32;;;;;;;1.42;0.80;;;;;;;16.32;45.03;102510.03;6272653;22;20095;-77
2021/01/10 04:06:57;;;;;;;1.55;0.70;;;;;;;16.33;45.17;102510.09;6299716;22;20093;-81
2021/01/10 04:09:22;;;;;;;1.30;0.70;;;;;;;16.33;44.83;102504.88;6271039;22;20014;-80
2021/01/10 04:11:48;;;;;;;1.13;0.63;;;;;;;16.34;45.09;102508.34;6244664;22;20023;-80
2021/01/10 04:14:16;;;;;;;1.73;0.77;;;;;;;16.35;45.09;102510.09;6247793;22;20038;-80
2021/01/10 04:16:42;;;;;;;1.30;0.68;;;;;;;16.33;45.10;102504.88;6246900;22;20015;-78
2021/01/10 04:19:07;;;;;;;1.55;0.80;;;;;;;16.34;45.01;102503.16;6247386;22;20008;-81
2021/01/10 04:21:36;;;;;;;1.20;0.65;;;;;;;16.34;45.09;102501.44;6300351;22;20014;-81
2021/01/10 04:24:03;;;;;;;0.90;0.60;;;;;;;16.35;44.85;102502.31;6299035;22;20011;-81
2021/01/10 04:26:29;;;;;;;1.13;0.70;;;;;;;16.33;45.18;102499.69;6272099;22;20007;-78
2021/01/10 04:28:55;;;;;;;1.00;0.60;;;;;;;16.34;44.93;102497.97;6271676;22;20028;-77
2021/01/10 04:31:20;;;;;;;0.70;0.60;;;;;;;16.33;45.21;102497.09;6272349;22;20019;-77
2021/01/10 04:33:45;;;;;;;1.45;0.93;;;;;;;16.33;45.00;102496.19;6266560;22;20000;-77
2021/01/10 04:36:11;;;;;;;1.30;0.65;;;;;;;16.32;44.94;102499.66;6264204;22;20004;-78
2021/01/10 04:38:36;;;;;;;0.98;0.60;;;;;;;16.33;45.02;102496.19;6261639;22;20330;-78
2021/01/10 04:41:02;;;;;;;1.00;0.55;;;;;;;16.31;45.08;102496.19;6232996;22;20008;-77
2021/01/10 04:43:28;;;;;;;1.15;0.60;;;;;;;16.31;44.88;102495.28;6292056;22;20007;-77
2021/01/10 04:45:55;;;;;;;0.93;0.60;;;;;;;16.30;45.10;102493.53;6253145;23;20091;-77
2021/01/10 04:48:21;;;;;;;1.02;0.63;;;;;;;16.30;44.97;102496.13;6224092;23;20031;-77
2021/01/10 04:50:47;;;;;;;1.10;0.60;;;;;;;16.30;45.12;102490.94;6250901;23;20004;-76
2021/01/10 04:53:18;;;;;;;0.55;0.40;;;;;;;16.29;44.86;102481.38;6252266;23;20001;-77
2021/01/10 04:55:45;;;;;;;1.13;0.60;;;;;;;16.29;44.99;102490.06;6275590;22;19996;-76
2021/01/10 04:58:12;;;;;;;1.40;0.60;;;;;;;16.29;44.99;102486.56;6250796;22;19996;-78
2021/01/10 05:00:37;;;;;;;1.27;0.60;;;;;;;16.26;44.92;102477.00;6275889;22;20020;-76
2021/01/10 05:03:11;;;;;;;1.05;0.50;;;;;;;16.29;45.00;102481.38;6233308;22;20011;-77
2021/01/10 05:05:40;;;;;;;0.88;0.60;;;;;;;16.28;44.87;102475.31;6311076;22;20007;-76
2021/01/10 05:08:10;;;;;;;1.00;0.52;;;;;;;16.28;44.75;102477.03;6284502;22;20011;-77
2021/01/10 05:10:37;;;;;;;1.52;0.50;;;;;;;16.28;44.96;102471.84;6291252;22;20003;-77
2021/01/10 05:13:03;;;;;;;1.10;0.50;;;;;;;16.27;44.93;102463.19;6242203;22;20045;-78
2021/01/10 05:15:29;;;;;;;0.90;0.60;;;;;;;16.28;44.87;102464.91;6293013;22;20012;-76
2021/01/10 05:17:56;;;;;;;1.00;0.60;;;;;;;16.27;44.80;102458.00;6294386;22;20013;-76
2021/01/10 05:20:29;;;;;;;0.90;0.60;;;;;;;16.28;44.94;102470.13;6293194;22;20034;-77
2021/01/10 05:22:55;;;;;;;0.80;0.50;;;;;;;16.27;44.92;102457.13;6294114;22;20003;-78
2021/01/10 05:25:21;;;;;;;1.60;0.63;;;;;;;16.26;44.85;102461.41;6269605;22;20334;-78
2021/01/10 05:27:52;;;;;;;0.60;0.40;;;;;;;16.27;44.80;102458.00;6295356;22;20007;-78
2021/01/10 05:30:27;;;;;;;1.25;0.50;;;;;;;16.25;44.91;102454.47;6321107;22;20027;-77
2021/01/10 05:32:58;;;;;;;0.73;0.50;;;;;;;16.25;44.82;102455.34;6322118;22;19999;-76
2021/01/10 05:35:24;;;;;;;1.23;0.50;;;;;;;16.25;44.91;102450.16;6300952;22;20007;-78
2021/01/10 05:37:58;;;;;;;0.90;0.55;;;;;;;16.25;44.90;102446.69;6300087;22;20014;-78
2021/01/10 05:40:29;;;;;;;0.88;0.52;;;;;;;16.25;44.66;102446.69;6298182;22;19999;-78
2021/01/10 05:43:05;;;;;;;1.63;0.50;;;;;;;16.25;44.73;102446.69;6294274;22;20075;-77
2021/01/10 05:45:37;;;;;;;1.00;0.50;;;;;;;16.23;44.84;102443.19;6312242;22;20018;-77
2021/01/10 05:48:10;;;;;;;0.85;0.40;;;;;;;16.24;44.94;102445.81;6297064;22;20408;-77
2021/01/10 05:50:40;;;;;;;1.20;0.60;;;;;;;16.25;44.70;102441.50;6293631;22;20003;-76
2021/01/10 05:53:14;;;;;;;1.05;0.65;;;;;;;16.25;44.78;102444.09;6269006;22;20012;-78
2021/01/10 05:55:51;;;;;;;1.25;0.60;;;;;;;16.24;44.49;102438.03;6292103;22;20011;-76
2021/01/10 05:58:16;;;;;;;1.27;0.68;;;;;;;16.24;44.90;102442.31;6289326;22;20003;-77
2021/01/10 06:00:42;;;;;;;1.30;0.70;;;;;;;16.22;44.71;102442.31;6267223;22;20003;-79
2021/01/10 06:03:09;;;;;;;1.10;0.60;;;;;;;16.21;44.68;102442.25;6243980;22;20012;-76
2021/01/10 06:05:35;;;;;;;1.35;0.40;;;;;;;16.22;44.56;102446.59;6288660;22;20007;-78
2021/01/10 06:08:00;;;;;;;1.17;0.52;;;;;;;16.21;44.76;102445.72;6266158;22;20011;-78
2021/01/10 06:10:27;;;;;;;0.73;0.50;;;;;;;16.21;44.71;102443.13;6269705;22;20004;-78
2021/01/10 06:13:04;;;;;;;1.00;0.40;;;;;;;16.21;44.75;102445.72;6295050;22;20049;-77
2021/01/10 06:15:31;;;;;;;0.75;0.40;;;;;;;16.21;44.71;102444.88;6273868;22;20018;-76
2021/01/10 06:18:01;;;;;;;0.88;0.50;;;;;;;16.21;44.75;102450.94;6297715;22;20019;-77
2021/01/10 06:20:28;;;;;;;0.68;0.45;;;;;;;16.21;44.69;102447.47;6324433;22;20014;-76
2021/01/10 06:22:55;;;;;;;1.33;0.50;;;;;;;16.20;44.80;102449.19;6270310;22;20004;-76
2021/01/10 06:25:22;;;;;;;1.02;0.50;;;;;;;16.21;44.78;102450.94;6300347;22;20010;-77
2021/01/10 06:28:08;;;;;;;1.63;0.60;;;;;;;16.21;44.81;102457.84;6300724;22;20503;-82
2021/01/10 06:30:37;;;;;;;1.10;0.60;;;;;;;16.22;44.63;102459.59;6301134;22;20003;-76
2021/01/10 06:33:09;;;;;;;0.75;0.50;;;;;;;16.19;44.43;102460.41;6320600;22;20022;-80
2021/01/10 06:35:38;;;;;;;0.95;0.50;;;;;;;16.21;44.75;102457.84;6293964;22;20011;-77
2021/01/10 06:38:05;;;;;;;0.80;0.50;;;;;;;16.19;44.63;102457.81;6290152;22;20061;-76
2021/01/10 06:40:36;;;;;;;1.10;0.60;;;;;;;16.19;44.76;102470.78;6317426;22;20003;-75
2021/01/10 06:43:03;;;;;;;1.15;0.52;;;;;;;16.19;44.85;102462.13;6317458;22;20007;-76
2021/01/10 06:45:39;;;;;;;2.05;0.60;;;;;;;16.18;44.78;102466.47;6262518;22;20004;-76
2021/01/10 06:48:05;;;;;;;0.77;0.60;;;;;;;16.20;44.69;102466.47;6288986;22;20007;-77
2021/01/10 06:50:32;;;;;;;1.10;0.50;;;;;;;16.19;44.50;102469.91;6263924;22;20010;-81
2021/01/10 06:53:05;;;;;;;1.20;0.60;;;;;;;16.18;44.84;102469.06;6300350;22;20012;-80
2021/01/10 06:55:31;;;;;;;1.30;0.60;;;;;;;16.19;44.77;102472.53;6300899;22;20000;-81
2021/01/10 06:57:56;;;;;;;1.00;0.57;;;;;;;16.19;44.86;102468.19;6275720;22;20004;-82
2021/01/10 07:00:22;;;;;;;0.93;0.60;;;;;;;16.20;44.61;102466.47;6249953;22;20031;-80
2021/01/10 07:03:12;;;;;;;1.00;0.60;;;;;;;16.20;44.85;102475.16;6252128;22;20054;-81
2021/01/10 07:05:55;;;;;;;1.17;0.50;;;;;;;16.21;44.70;102470.84;6276338;22;20010;-82
2021/01/10 07:08:43;;;;;;;0.88;0.60;;;;;;;16.21;44.77;102476.91;6276493;22;20030;-80
2021/01/10 07:11:21;;;;;;;1.10;0.68;;;;;;;16.21;44.72;102479.50;6303382;22;20000;-80
2021/01/10 07:14:07;;;;;;;0.50;0.50;;;;;;;16.21;44.78;102481.22;6276054;22;20004;-82
2021/01/10 07:16:33;;;;;;;1.27;0.73;;;;;;;16.22;44.84;102482.97;6255065;22;20014;-76
2021/01/10 07:19:03;;;;;;;1.02;0.60;;;;;;;16.22;44.73;102483.88;6263888;22;20004;-76
2021/01/10 07:21:31;;;;;;;0.88;0.60;;;;;;;16.22;44.81;102491.66;6290687;22;20010;-76
2021/01/10 07:24:27;;;;;;;0.65;0.50;;;;;;;16.22;44.93;102485.56;6270430;22;20030;-79
2021/01/10 07:26:57;;;;;;;1.25;0.57;;;;;;;16.22;44.84;102482.97;6298922;22;20003;-80
2021/01/10 07:29:29;;;;;;;0.82;0.57;;;;;;;16.22;44.99;102480.38;6301585;22;20012;-80
2021/01/10 07:32:04;;;;;;;0.88;0.60;;;;;;;16.22;44.97;102483.88;6301689;22;19995;-81
2021/01/10 07:34:30;;;;;;;1.00;0.60;;;;;;;16.23;44.92;102482.13;6268749;23;20039;-81
2021/01/10 07:36:59;;;;;;;0.80;0.50;;;;;;;16.23;44.74;102482.13;6271582;22;20000;-80
2021/01/10 07:39:31;;;;;;;0.90;0.60;;;;;;;16.24;45.08;102481.28;6271025;23;20000;-81
2021/01/10 07:42:08;;;;;;;0.73;0.50;;;;;;;16.22;44.86;102478.69;6271807;22;20012;-82
2021/01/10 07:44:47;;;;;;;0.75;0.43;;;;;;;16.25;44.87;102485.66;6268750;23;20010;-80
2021/01/10 07:47:13;;;;;;;1.23;0.70;;;;;;;16.25;45.08;102486.53;6270605;23;20008;-80
2021/01/10 07:49:58;;;;;;;0.70;0.40;;;;;;;16.24;44.92;102484.78;6268001;23;20030;-81
2021/01/10 07:52:42;;;;;;;1.00;0.60;;;;;;;16.25;44.91;102485.66;6244566;22;20008;-80
2021/01/10 07:55:17;;;;;;;0.95;0.70;;;;;;;16.24;45.09;102479.59;6278079;22;20019;-79
2021/01/10 07:57:44;;;;;;;0.90;0.60;;;;;;;16.27;44.92;102480.50;6305026;22;20019;-79
2021/01/10 08:00:11;;;;;;;0.73;0.50;;;;;;;16.25;45.08;102476.13;6303710;22;20037;-80
2021/01/10 08:03:01;;;;;;;0.95;0.60;;;;;;;16.27;44.91;102475.31;6304707;22;20007;-81
2021/01/10 08:05:28;;;;;;;0.90;0.60;;;;;;;16.27;44.87;102473.56;6302270;22;20017;-77
2021/01/10 08:08:03;;;;;;;1.05;0.50;;;;;;;16.28;44.91;102471.84;6302228;22;20003;-81
2021/01/10 08:10:47;;;;;;;0.75;0.57;;;;;;;16.28;45.14;102472.72;6295664;22;20019;-80
2021/01/10 08:13:34;;;;;;;0.82;0.50;;;;;;;16.28;44.92;102480.50;6332138;22;20007;-80
2021/01/10 08:16:27;;;;;;;0.88;0.60;;;;;;;16.30;44.90;102480.56;6329452;22;19999;-80
2021/01/10 08:18:53;;;;;;;1.15;0.68;;;;;;;16.29;45.18;102483.97;6329964;22;20011;-80
2021/01/10 08:21:18;;;;;;;0.80;0.50;;;;;;;16.29;45.12;102478.78;6278342;22;20049;-81
2021/01/10 08:23:52;;;;;;;0.70;0.60;;;;;;;16.30;45.04;102485.75;6330490;22;20011;-76
2021/01/10 08:26:18;;;;;;;0.80;0.60;;;;;;;16.30;45.03;102481.44;6305971;22;20022;-80
2021/01/10 08:28:53;;;;;;;1.33;0.50;;;;;;;16.34;44.82;102491.03;6254762;22;20027;-80
2021/01/10 08:31:24;;;;;;;0.73;0.50;;;;;;;16.38;44.81;102492.00;6328882;22;20034;-81
2021/01/10 08:34:00;;;;;;;4.05;0.80;;;;;;;16.60;45.28;102496.81;6317763;22;20006;-79
2021/01/10 08:36:26;;;;;;;10.85;1.00;;;;;;;16.83;45.90;102492.13;6286888;22;19995;-79
2021/01/10 08:39:00;;;;;;;22.08;3.78;;;;;;;16.97;45.67;102500.19;6260929;22;20025;-79
2021/01/10 08:41:33;;;;;;;19.23;5.68;;;;;;;16.98;45.82;102504.50;6287214;22;20025;-80
2021/01/10 08:44:10;;;;;;;15.40;4.07;;;;;;;17.06;45.54;102502.06;6287174;22;20442;-79
2021/01/10 08:46:42;;;;;;;20.45;3.90;;;;;;;17.11;45.47;102505.63;6285228;22;20037;-77
2021/01/10 08:49:08;;;;;;;16.08;3.25;;;;;;;17.15;45.28;102496.19;6311519;22;20064;-79
2021/01/10 08:51:35;;;;;;;10.18;3.05;;;;;;;17.16;45.45;102496.22;6284088;22;20418;-79
2021/01/10 08:54:11;;;;;;;14.32;3.03;;;;;;;17.17;45.61;102503.16;6285892;22;20046;-79
2021/01/10 08:56:37;;;;;;;9.18;2.28;;;;;;;17.19;45.79;102500.59;6274041;22;20382;-78
2021/01/10 08:59:04;;;;;;;7.82;2.20;;;;;;;17.22;45.60;102498.94;6248155;22;20087;-78
2021/01/10 09:01:29;;;;;;;7.78;2.75;;;;;;;17.27;45.68;102502.47;6247202;23;20030;-78
2021/01/10 09:04:00;;;;;;;7.85;2.35;;;;;;;17.31;45.75;102500.81;6248218;23;20016;-78
2021/01/10 09:06:34;;;;;;;7.55;2.50;;;;;;;17.32;45.62;102499.97;6248710;23;20011;-79
2021/01/10 09:09:28;;;;;;;5.97;2.55;;;;;;;17.34;45.62;102493.06;6248459;23;20079;-79
2021/01/10 09:12:01;;;;;;;23.13;2.70;;;;;;;17.33;45.60;102493.91;6236016;23;20004;-76
2021/01/10 09:14:31;;;;;;;6.53;1.88;;;;;;;17.30;45.68;102488.66;6248399;22;20004;-77
2021/01/10 09:16:59;;;;;;;10.20;2.28;;;;;;;17.30;45.76;102499.06;6250254;22;20015;-77
2021/01/10 09:19:27;;;;;;;7.57;2.05;;;;;;;17.28;45.78;102491.22;6248153;23;20000;-78
2021/01/10 09:21:53;;;;;;;6.43;2.30;;;;;;;17.40;45.73;102487.97;6247703;22;20019;-78
2021/01/10 09:24:18;;;;;;;12.80;2.28;;;;;;;17.48;45.65;102485.47;6222642;23;20008;-78
2021/01/10 09:26:44;;;;;;;8.82;2.13;;;;;;;17.62;45.39;102486.59;6253964;23;20027;-80
2021/01/10 09:29:19;;;;;;;14.27;2.22;;;;;;;17.69;45.03;102490.19;6237965;23;20035;-77
2021/01/10 09:31:47;;;;;;;12.60;2.42;;;;;;;17.61;45.17;102482.22;6258351;22;20011;-79
2021/01/10 09:34:13;;;;;;;12.93;2.60;;;;;;;17.56;44.99;102493.44;6250012;23;20450;-78
2021/01/10 09:36:39;;;;;;;8.75;2.22;;;;;;;17.50;45.33;102493.31;6249130;23;20043;-79
2021/01/10 09:39:06;;;;;;;10.25;2.60;;;;;;;17.46;45.49;102492.38;6227338;23;20011;-79
2021/01/10 09:41:52;;;;;;;10.10;2.20;;;;;;;17.47;45.45;102497.63;6255555;23;20012;-77
2021/01/10 09:44:18;;;;;;;6.38;1.90;;;;;;;17.50;45.15;102496.78;6257396;22;20001;-76
2021/01/10 09:46:51;;;;;;;11.20;2.10;;;;;;;17.51;45.07;102489.84;6252963;23;20011;-75
2021/01/10 09:49:20;;;;;;;4.82;1.95;;;;;;;17.51;45.11;102492.47;6254904;22;20490;-78
2021/01/10 09:51:48;;;;;;;5.50;1.83;;;;;;;17.57;45.23;102492.56;6253630;23;20343;-75
2021/01/10 09:54:21;;;;;;;4.47;1.95;;;;;;;17.58;44.86;102500.41;6254680;22;20004;-76
2021/01/10 09:56:58;;;;;;;5.15;2.00;;;;;;;17.57;44.88;102495.19;6257355;22;20019;-78
2021/01/10 09:59:36;;;;;;;6.18;1.80;;;;;;;17.54;44.83;102489.94;6287928;22;20062;-77
2021/01/10 10:02:14;;;;;;;4.88;1.60;;;;;;;17.50;44.95;102491.59;6257872;22;20008;-77
2021/01/10 10:04:41;;;;;;;4.45;1.98;;;;;;;17.47;44.52;102489.81;6285110;22;20038;-79
2021/01/10 10:07:07;;;;;;;10.38;1.92;;;;;;;17.51;45.94;102488.16;6253999;22;20391;-76
2021/01/10 10:09:51;;;;;;;7.32;1.95;;;;;;;17.24;47.29;102484.19;6266888;22;20007;-77
2021/01/10 10:15:28;;;;;;;7.15;1.90;;;;;;;16.91;48.35;102489.66;6322376;22;20016;-78
2021/01/10 10:21:48;;;;;;;4.63;1.65;;;;;;;16.74;48.89;102485.81;6324219;22;20484;-78
2021/01/10 10:24:54;;;;;;;8.75;1.73;;;;;;;16.70;48.92;102486.59;6205090;23;20005;-77
2021/01/10 10:33:40;;;;;;;3.53;1.55;;;;;;;16.71;49.17;102490.94;6312337;22;20019;-78
2021/01/10 10:43:13;;;;;;;4.65;1.55;;;;;;;16.62;49.55;102484.72;6327656;22;20074;-78
2021/01/10 10:46:19;;;;;;;5.60;1.70;;;;;;;16.62;49.81;102482.13;6228784;23;20001;-78
2021/01/10 10:49:05;;;;;;;3.67;1.30;;;;;;;16.65;50.02;102473.50;6207861;23;20004;-77
2021/01/10 11:26:35;;;;;;;3.90;1.67;;;;;;;16.86;49.98;102470.50;6329150;22;20022;-78
2021/01/10 11:29:47;;;;;;;2.17;1.20;;;;;;;16.81;50.36;102470.41;6333710;22;20022;-77
2021/01/10 11:32:37;;;;;;;2.58;1.17;;;;;;;16.79;50.24;102472.06;6268634;23;20047;-77
2021/01/10 11:47:40;;;;;;;2.88;1.50;;;;;;;16.80;50.45;102449.56;6327072;22;20041;-77
2021/01/10 12:41:24;;;;;;;3.42;1.80;;;;;;;16.89;53.72;102413.34;6280378;22;19941;-78
2021/01/10 12:44:12;;;;;;;10.15;2.72;;;;;;;17.09;55.37;102412.81;6175004;23;20369;-79
2021/01/10 12:46:37;;;;;;;5.82;2.33;;;;;;;16.90;56.04;102414.19;6193612;22;20024;-77
2021/01/10 12:51:37;;;;;;;4.20;2.50;;;;;;;16.72;54.62;102412.09;6329151;22;20033;-81
2021/01/10 12:54:04;;;;;;;3.17;2.40;;;;;;;16.59;55.98;102413.59;6295988;22;20039;-78
2021/01/10 12:56:29;;;;;;;6.80;2.72;;;;;;;16.56;54.55;102413.53;6222879;22;20007;-77
2021/01/10 12:58:54;;;;;;;3.42;2.35;;;;;;;16.54;56.19;102413.50;6247998;22;20030;-80
2021/01/10 13:01:21;;;;;;;4.57;2.50;;;;;;;16.49;59.26;102411.69;6245924;22;20026;-84
2021/01/10 13:03:46;;;;;;;3.72;2.50;;;;;;;16.41;56.77;102409.78;6270662;22;20010;-77
2021/01/10 13:06:12;;;;;;;4.30;2.47;;;;;;;16.41;56.23;102403.72;6267391;22;20036;-81
2021/01/10 13:08:37;;;;;;;4.07;2.63;;;;;;;16.41;55.29;102403.72;6241770;22;20004;-81
2021/01/10 13:11:02;;;;;;;3.05;2.45;;;;;;;16.39;58.72;102400.19;6265040;22;20053;-81
2021/01/10 13:13:28;;;;;;;3.45;2.50;;;;;;;16.38;55.75;102404.53;6259544;22;20011;-80
2021/01/10 13:15:53;;;;;;;2.95;2.45;;;;;;;16.41;55.73;102403.72;6260858;22;20034;-80
2021/01/10 13:18:18;;;;;;;4.03;2.20;;;;;;;16.39;55.79;102406.25;6239991;22;20071;-81
2021/01/10 13:20:44;;;;;;;5.55;3.03;;;;;;;16.37;57.22;102402.75;6263584;22;20015;-80
2021/01/10 13:23:09;;;;;;;4.00;2.72;;;;;;;16.40;56.43;102405.44;6263522;22;20007;-80
2021/01/10 13:25:34;;;;;;;5.18;2.85;;;;;;;16.39;56.84;102400.19;6265138;22;20011;-81
2021/01/10 13:28:00;;;;;;;3.85;2.60;;;;;;;16.37;56.39;102402.75;6239642;22;20031;-82
2021/01/10 13:30:25;;;;;;;4.68;2.70;;;;;;;16.39;56.27;102398.47;6240642;22;20015;-81
2021/01/10 13:32:51;;;;;;;4.03;2.53;;;;;;;16.38;56.57;102396.72;6288449;22;20090;-80
2021/01/10 13:35:19;;;;;;;3.90;2.63;;;;;;;16.37;57.04;102397.56;6285616;22;20012;-80
2021/01/10 13:37:45;;;;;;;3.95;2.40;;;;;;;16.40;56.84;102391.56;6263857;22;20015;-81
2021/01/10 13:40:10;;;;;;;3.33;2.50;;;;;;;16.40;59.51;102394.19;6238767;22;20008;-78
2021/01/10 13:42:36;;;;;;;3.70;2.50;;;;;;;16.36;56.17;102397.56;6291342;22;20086;-80
2021/01/10 13:45:02;;;;;;;4.80;2.75;;;;;;;16.37;56.66;102397.56;6262394;22;20004;-80
2021/01/10 13:47:27;;;;;;;4.10;2.85;;;;;;;16.31;59.75;102384.47;6316639;22;20003;-82